Time;durP1;ratioP1;P1;durP2;ratioP2;P2;SDS_P1;SDS_P2;PMS_P1;PMS_P2;Temp;Humidity;BMP_temperature;BMP_pressure;BME280_temperature;BME280_humidity;BME280_pressure;Samples;Min_cycle;Max_cycle;Signal;HPM_P1;HPM_P2
2023/11/07 00:02:24;;;;;;;4.07;2.25;;;9.10;99.90;;;;;;5073903;28;20404;-47
2023/11/07 00:04:54;;;;;;;8.98;3.85;;;9.20;99.90;;;;;;5073697;28;20031;-47
2023/11/07 00:07:23;;;;;;;3.80;2.53;;;9.20;99.90;;;;;;5073504;28;20028;-46
2023/11/07 00:09:49;;;;;;;6.93;2.67;;;9.20;99.90;;;;;;5073699;28;20032;-42
2023/11/07 00:12:16;;;;;;;5.78;2.42;;;9.20;99.90;;;;;;5073799;28;20480;-50
2023/11/07 00:14:41;;;;;;;5.43;2.28;;;9.20;99.90;;;;;;5073579;28;20029;-45
2023/11/07 00:17:07;;;;;;;3.42;2.22;;;9.20;99.90;;;;;;5073274;28;20407;-49
2023/11/07 00:19:32;;;;;;;4.97;2.25;;;9.30;99.90;;;;;;5073244;28;20032;-47
2023/11/07 00:21:58;;;;;;;3.25;2.40;;;9.30;99.90;;;;;;5074155;28;20028;-47
2023/11/07 00:24:25;;;;;;;62.25;36.72;;;9.30;99.90;;;;;;5073462;28;20484;-47
2023/11/07 00:26:51;;;;;;;7.35;3.78;;;9.30;99.90;;;;;;5073354;28;20399;-45
2023/11/07 00:29:16;;;;;;;5.40;3.30;;;9.40;99.90;;;;;;5072868;28;20103;-46
2023/11/07 00:31:42;;;;;;;8.85;2.80;;;9.40;99.90;;;;;;5073368;28;20476;-46
2023/11/07 00:34:07;;;;;;;8.50;2.15;;;9.50;99.90;;;;;;5073219;28;20044;-45
2023/11/07 00:36:33;;;;;;;7.78;2.10;;;9.40;99.90;;;;;;5072588;28;20033;-44
2023/11/07 00:39:00;;;;;;;3.53;2.28;;;9.40;99.90;;;;;;5073138;28;20020;-50
2023/11/07 00:41:26;;;;;;;3.97;2.45;;;9.50;99.90;;;;;;5070376;28;20652;-48
2023/11/07 00:43:52;;;;;;;4.88;2.38;;;9.50;99.90;;;;;;5072497;28;20020;-47
2023/11/07 00:46:18;;;;;;;5.10;2.25;;;9.50;99.90;;;;;;5072907;28;20449;-48
2023/11/07 00:48:44;;;;;;;3.25;2.20;;;9.50;99.90;;;;;;5072897;28;20020;-47
2023/11/07 00:51:11;;;;;;;4.82;1.80;;;9.50;99.90;;;;;;5072794;28;20077;-46
2023/11/07 00:53:37;;;;;;;3.35;1.75;;;9.60;99.90;;;;;;5072979;28;20545;-48
2023/11/07 00:56:03;;;;;;;5.20;1.98;;;9.60;99.90;;;;;;5072876;28;20024;-48
2023/11/07 00:58:29;;;;;;;4.55;2.05;;;9.60;99.90;;;;;;5072680;28;20022;-47
2023/11/07 01:00:54;;;;;;;2.83;2.03;;;9.60;99.90;;;;;;5072633;28;20041;-45
2023/11/07 01:03:21;;;;;;;5.30;2.35;;;9.60;99.90;;;;;;5072634;28;20029;-45
2023/11/07 01:05:47;;;;;;;4.00;1.77;;;9.50;99.90;;;;;;5072588;28;20486;-46
2023/11/07 01:08:13;;;;;;;2.17;1.85;;;9.50;99.90;;;;;;5072464;28;20078;-45
2023/11/07 01:10:39;;;;;;;6.43;1.77;;;9.40;99.90;;;;;;5071628;28;20051;-41
2023/11/07 01:13:06;;;;;;;3.35;2.55;;;9.30;99.90;;;;;;5072530;28;20487;-45
2023/11/07 01:15:32;;;;;;;5.63;2.67;;;9.30;99.90;;;;;;5072197;28;20032;-47
2023/11/07 01:17:57;;;;;;;4.13;2.15;;;9.20;99.90;;;;;;5072281;28;20043;-45
2023/11/07 01:20:23;;;;;;;2.72;2.03;;;9.30;99.90;;;;;;5072350;28;20361;-45
2023/11/07 01:22:50;;;;;;;1.85;1.73;;;9.20;99.90;;;;;;5072363;28;20396;-45
2023/11/07 01:25:15;;;;;;;11.07;3.50;;;9.10;99.90;;;;;;5072370;28;20027;-47
2023/11/07 01:27:41;;;;;;;6.75;2.28;;;9.00;99.90;;;;;;5054304;28;20028;-48
2023/11/07 01:30:08;;;;;;;4.75;2.25;;;9.10;99.90;;;;;;5083164;28;20078;-49
2023/11/07 01:32:34;;;;;;;4.07;2.15;;;9.10;99.90;;;;;;5072220;28;20530;-46
2023/11/07 01:34:59;;;;;;;3.17;1.98;;;9.10;99.90;;;;;;5072187;28;20032;-45
2023/11/07 01:37:25;;;;;;;4.90;1.83;;;9.10;99.90;;;;;;5072120;28;20074;-45
2023/11/07 01:39:50;;;;;;;6.47;2.50;;;9.10;99.90;;;;;;5071947;28;20025;-46
2023/11/07 01:42:16;;;;;;;3.80;1.88;;;9.10;99.90;;;;;;5072234;28;20030;-43
2023/11/07 01:44:51;;;;;;;5.00;1.92;;;9.10;99.90;;;;;;5072201;28;20043;-44
2023/11/07 01:47:18;;;;;;;3.30;1.85;;;9.20;99.90;;;;;;5072171;28;20029;-48
2023/11/07 01:49:47;;;;;;;3.35;1.77;;;9.10;99.90;;;;;;5072066;28;20408;-45
2023/11/07 01:52:16;;;;;;;2.53;1.88;;;9.10;99.90;;;;;;5071981;28;20024;-45
2023/11/07 01:54:44;;;;;;;2.85;1.83;;;9.10;99.90;;;;;;5071879;28;20106;-48
2023/11/07 01:57:11;;;;;;;3.03;1.90;;;9.20;99.90;;;;;;5071354;28;20066;-46
2023/11/07 01:59:38;;;;;;;2.67;1.75;;;9.10;99.90;;;;;;5071575;28;20017;-45
2023/11/07 02:02:09;;;;;;;6.15;2.13;;;9.10;99.90;;;;;;5071781;28;20048;-48
2023/11/07 02:04:34;;;;;;;3.10;1.52;;;9.10;99.90;;;;;;5071710;28;20021;-46
2023/11/07 02:07:00;;;;;;;2.03;1.60;;;9.10;99.90;;;;;;5071361;28;20021;-45
2023/11/07 02:09:26;;;;;;;5.97;2.28;;;9.20;99.90;;;;;;5071203;28;20107;-46
2023/11/07 02:11:51;;;;;;;3.40;1.92;;;9.20;99.90;;;;;;5053535;28;20031;-47
2023/11/07 02:14:32;;;;;;;2.55;1.92;;;9.20;99.90;;;;;;5071535;28;20036;-47
2023/11/07 02:16:58;;;;;;;6.45;2.00;;;9.20;99.90;;;;;;5071112;28;20082;-48
2023/11/07 02:19:23;;;;;;;3.95;1.98;;;9.20;99.90;;;;;;5071263;28;20025;-45
2023/11/07 02:21:52;;;;;;;2.25;1.30;;;9.30;99.90;;;;;;5053115;28;20082;-48
2023/11/07 02:24:17;;;;;;;2.42;1.60;;;9.40;99.90;;;;;;5071488;28;20254;-45
2023/11/07 02:26:42;;;;;;;4.88;1.40;;;9.40;99.90;;;;;;5071178;28;20495;-47
2023/11/07 02:29:09;;;;;;;3.28;1.50;;;9.40;99.90;;;;;;5071105;28;20036;-48
2023/11/07 02:31:35;;;;;;;2.63;1.70;;;9.40;99.90;;;;;;5071440;28;20392;-49
2023/11/07 02:34:05;;;;;;;4.20;1.58;;;9.40;99.90;;;;;;5071320;28;20027;-52
2023/11/07 02:36:32;;;;;;;3.63;1.73;;;9.40;99.90;;;;;;5071186;28;20021;-47
2023/11/07 02:38:57;;;;;;;3.17;1.60;;;9.50;99.90;;;;;;5071704;28;20032;-45
2023/11/07 02:41:23;;;;;;;2.58;1.60;;;9.50;99.90;;;;;;5071605;28;20400;-47
2023/11/07 02:43:48;;;;;;;8.95;1.88;;;9.50;99.90;;;;;;5071546;28;20025;-45
2023/11/07 02:46:14;;;;;;;3.25;1.70;;;9.50;99.90;;;;;;5071607;28;20029;-48
2023/11/07 02:48:39;;;;;;;3.40;1.60;;;9.50;99.90;;;;;;5071427;28;20047;-45
2023/11/07 02:51:05;;;;;;;4.32;1.48;;;9.50;99.90;;;;;;5070997;28;20506;-46
2023/11/07 02:53:30;;;;;;;11.55;2.08;;;9.50;99.90;;;;;;5071339;28;20056;-48
2023/11/07 02:55:56;;;;;;;4.25;1.98;;;9.50;99.90;;;;;;5071010;28;20488;-47
2023/11/07 02:58:23;;;;;;;4.93;1.98;;;9.60;99.90;;;;;;5071230;28;20024;-45
2023/11/07 03:00:49;;;;;;;1.60;1.20;;;9.50;99.90;;;;;;5070967;28;20020;-45
2023/11/07 03:03:15;;;;;;;5.00;1.85;;;9.60;99.90;;;;;;5070951;28;20013;-41
2023/11/07 03:05:40;;;;;;;2.30;1.88;;;9.50;99.90;;;;;;5070867;28;20027;-48
2023/11/07 03:08:06;;;;;;;3.17;1.92;;;9.60;99.90;;;;;;5070989;28;20063;-48
2023/11/07 03:10:32;;;;;;;3.72;2.28;;;9.50;99.90;;;;;;5070760;28;20020;-47
2023/11/07 03:12:58;;;;;;;5.57;2.38;;;9.60;99.90;;;;;;5070949;28;20507;-45
2023/11/07 03:15:24;;;;;;;4.65;2.83;;;9.50;99.90;;;;;;5070747;28;20025;-44
2023/11/07 03:17:49;;;;;;;3.83;1.70;;;9.50;99.90;;;;;;5070830;28;20024;-46
2023/11/07 03:20:16;;;;;;;2.58;2.20;;;9.40;99.90;;;;;;5052756;28;20032;-46
2023/11/07 03:22:42;;;;;;;3.95;2.13;;;9.50;99.90;;;;;;5070937;28;20024;-45
2023/11/07 03:25:09;;;;;;;2.80;1.70;;;9.50;99.90;;;;;;5070755;28;20033;-45
2023/11/07 03:27:36;;;;;;;5.05;2.25;;;9.50;99.90;;;;;;5070836;28;20589;-48
2023/11/07 03:30:05;;;;;;;4.35;1.60;;;9.50;99.90;;;;;;5070387;28;20020;-45
2023/11/07 03:32:31;;;;;;;5.35;1.65;;;9.50;99.90;;;;;;5071651;28;20025;-49
2023/11/07 03:34:58;;;;;;;2.40;1.65;;;9.50;99.90;;;;;;5074427;28;20032;-44
2023/11/07 03:37:24;;;;;;;3.63;1.95;;;9.60;99.90;;;;;;5074596;28;20551;-47
2023/11/07 03:39:49;;;;;;;5.95;1.88;;;9.50;99.90;;;;;;5074179;28;20091;-46
2023/11/07 03:42:15;;;;;;;3.03;1.42;;;9.50;99.90;;;;;;5074450;28;20067;-47
2023/11/07 03:44:40;;;;;;;3.63;2.00;;;9.50;99.90;;;;;;5074153;28;20028;-45
2023/11/07 03:47:06;;;;;;;4.20;1.73;;;9.50;99.90;;;;;;5074163;28;20025;-44
2023/11/07 03:49:32;;;;;;;3.92;2.00;;;9.50;99.90;;;;;;5073967;28;20033;-45
2023/11/07 03:51:57;;;;;;;2.53;2.10;;;9.50;99.90;;;;;;5074235;28;20028;-46
2023/11/07 03:54:23;;;;;;;8.20;2.40;;;9.50;99.90;;;;;;5074061;28;20480;-45
2023/11/07 03:56:49;;;;;;;2.88;1.63;;;9.50;99.90;;;;;;5074045;28;20031;-46
2023/11/07 03:59:15;;;;;;;3.05;1.67;;;9.50;99.90;;;;;;5073730;28;20138;-47
2023/11/07 04:01:40;;;;;;;2.92;2.10;;;9.50;99.90;;;;;;5074206;28;20029;-47
2023/11/07 04:04:06;;;;;;;4.90;1.75;;;9.50;99.90;;;;;;5074153;28;20473;-46
2023/11/07 04:06:32;;;;;;;5.30;1.80;;;9.50;99.90;;;;;;5073823;28;20032;-48
2023/11/07 04:09:00;;;;;;;5.95;2.00;;;9.50;99.90;;;;;;5073878;28;20110;-44
2023/11/07 04:11:26;;;;;;;4.78;2.20;;;9.50;99.90;;;;;;5055727;28;20066;-43
2023/11/07 04:13:52;;;;;;;1.85;1.70;;;9.60;99.90;;;;;;5073709;28;20028;-45
2023/11/07 04:16:18;;;;;;;4.57;1.98;;;9.60;99.90;;;;;;5073527;28;20037;-47
2023/11/07 04:18:44;;;;;;;8.18;2.75;;;9.60;99.90;;;;;;5073858;28;20028;-47
2023/11/07 04:21:10;;;;;;;4.55;1.95;;;9.60;99.90;;;;;;5073891;28;20021;-48
2023/11/07 04:23:36;;;;;;;6.30;1.63;;;9.60;99.90;;;;;;5056701;28;20028;-45
2023/11/07 04:26:02;;;;;;;2.92;1.85;;;9.60;99.90;;;;;;5073650;28;20028;-46
2023/11/07 04:28:29;;;;;;;2.67;1.75;;;9.50;99.90;;;;;;5073438;28;20024;-46
2023/11/07 04:30:54;;;;;;;6.03;2.30;;;9.50;99.90;;;;;;5073428;28;20488;-45
2023/11/07 04:33:21;;;;;;;3.30;1.88;;;9.50;99.90;;;;;;5073571;28;20032;-45
2023/11/07 04:35:47;;;;;;;2.90;1.95;;;9.60;99.90;;;;;;5073321;28;20021;-47
2023/11/07 04:38:13;;;;;;;4.88;1.85;;;9.50;99.90;;;;;;5073234;28;20065;-45
2023/11/07 04:40:40;;;;;;;5.38;2.17;;;9.60;99.90;;;;;;5073091;28;20025;-45
2023/11/07 04:43:07;;;;;;;2.60;1.67;;;9.60;99.90;;;;;;5072902;28;20147;-48
2023/11/07 04:45:36;;;;;;;6.45;2.35;;;9.60;99.90;;;;;;5073006;28;20020;-48
2023/11/07 04:48:02;;;;;;;5.35;1.98;;;9.60;99.90;;;;;;5073281;28;20020;-46
2023/11/07 04:50:28;;;;;;;6.20;2.22;;;9.60;99.90;;;;;;5072887;28;20039;-48
2023/11/07 04:52:53;;;;;;;13.48;2.10;;;9.60;99.90;;;;;;5073013;28;20032;-50
2023/11/07 04:55:21;;;;;;;7.18;2.30;;;9.60;99.90;;;;;;5072977;28;20032;-47
2023/11/07 04:57:49;;;;;;;4.57;1.92;;;9.60;99.90;;;;;;5073357;28;20024;-45
2023/11/07 05:00:16;;;;;;;2.90;2.15;;;9.60;99.90;;;;;;5072996;28;20016;-48
2023/11/07 05:02:42;;;;;;;4.88;2.15;;;9.50;99.90;;;;;;5072768;28;20460;-49
2023/11/07 05:05:08;;;;;;;3.55;1.90;;;9.50;99.90;;;;;;5072814;28;20103;-48
2023/11/07 05:07:35;;;;;;;6.05;2.10;;;9.50;99.90;;;;;;5072635;28;20022;-46
2023/11/07 05:10:03;;;;;;;5.75;2.50;;;9.50;99.90;;;;;;5072621;28;20024;-49
2023/11/07 05:12:29;;;;;;;4.75;1.80;;;9.50;99.90;;;;;;5072698;28;20028;-45
2023/11/07 05:14:55;;;;;;;4.47;2.33;;;9.50;99.90;;;;;;5054519;28;20123;-47
2023/11/07 05:17:20;;;;;;;7.97;1.85;;;9.50;99.90;;;;;;5072584;28;20099;-50
2023/11/07 05:19:46;;;;;;;8.68;2.28;;;9.50;99.90;;;;;;5072385;28;20020;-45
2023/11/07 05:22:12;;;;;;;2.95;1.88;;;9.50;99.90;;;;;;5072559;28;20025;-46
2023/11/07 05:24:37;;;;;;;4.22;1.88;;;9.50;99.90;;;;;;5072427;28;20116;-46
2023/11/07 05:27:03;;;;;;;5.05;2.05;;;9.40;99.90;;;;;;5072426;28;20146;-49
2023/11/07 05:29:28;;;;;;;2.17;1.77;;;9.40;99.90;;;;;;5054264;28;20052;-45
2023/11/07 05:31:55;;;;;;;3.55;2.45;;;9.40;99.90;;;;;;5072340;28;20396;-47
2023/11/07 05:34:20;;;;;;;5.50;2.25;;;9.40;99.90;;;;;;5072356;28;20033;-45
2023/11/07 05:36:46;;;;;;;3.80;2.05;;;9.30;99.90;;;;;;5072239;28;20395;-44
2023/11/07 05:39:12;;;;;;;2.42;1.83;;;9.30;99.90;;;;;;5072392;28;20016;-45
2023/11/07 05:41:37;;;;;;;11.40;2.55;;;9.30;99.90;;;;;;5072356;28;20035;-47
2023/11/07 05:44:03;;;;;;;2.83;1.70;;;9.30;99.90;;;;;;5072072;28;20056;-45
2023/11/07 05:46:28;;;;;;;5.60;2.63;;;9.30;99.90;;;;;;5072039;28;20043;-47
2023/11/07 05:48:54;;;;;;;4.00;2.55;;;9.30;99.90;;;;;;5072068;28;20029;-49
2023/11/07 05:51:20;;;;;;;3.50;2.15;;;9.30;99.90;;;;;;5071772;28;20035;-48
2023/11/07 05:53:46;;;;;;;5.63;2.05;;;9.30;99.90;;;;;;5072021;28;20028;-48
2023/11/07 05:56:11;;;;;;;7.57;2.35;;;9.30;99.90;;;;;;5071223;28;20028;-46
2023/11/07 05:58:37;;;;;;;3.90;1.90;;;9.30;99.90;;;;;;5071791;28;20033;-46
2023/11/07 06:01:04;;;;;;;6.82;2.15;;;9.30;99.90;;;;;;5071744;28;20021;-50
2023/11/07 06:03:30;;;;;;;1.90;1.80;;;9.30;99.90;;;;;;5071786;28;20021;-50
2023/11/07 06:05:56;;;;;;;3.85;1.80;;;9.30;99.90;;;;;;5071648;28;20499;-46
2023/11/07 06:08:21;;;;;;;4.47;1.67;;;9.30;99.90;;;;;;5072078;28;20032;-48
2023/11/07 06:10:47;;;;;;;5.22;1.60;;;9.30;99.90;;;;;;5071816;28;20037;-49
2023/11/07 06:13:13;;;;;;;4.13;1.67;;;9.40;99.90;;;;;;5071629;28;20401;-50
2023/11/07 06:15:39;;;;;;;7.50;1.60;;;9.40;99.90;;;;;;5071434;28;20122;-50
2023/11/07 06:18:05;;;;;;;3.83;1.27;;;9.30;99.90;;;;;;5053704;28;21074;-50
2023/11/07 06:20:30;;;;;;;5.70;1.67;;;9.40;99.90;;;;;;5053620;28;20434;-47
2023/11/07 06:22:56;;;;;;;3.75;1.65;;;9.40;99.90;;;;;;5054504;28;20510;-46
2023/11/07 06:25:21;;;;;;;3.00;1.95;;;9.40;99.90;;;;;;5072043;28;20070;-50
2023/11/07 06:27:47;;;;;;;3.83;2.00;;;9.40;99.90;;;;;;5071815;28;20070;-50
2023/11/07 06:30:15;;;;;;;3.67;1.60;;;9.40;99.90;;;;;;5071336;28;20539;-48
2023/11/07 06:32:41;;;;;;;1.98;1.67;;;9.40;99.90;;;;;;5071809;28;20028;-49
2023/11/07 06:35:08;;;;;;;9.15;1.25;;;9.40;99.90;;;;;;5071619;28;20024;-46
2023/11/07 06:37:34;;;;;;;1.92;1.45;;;9.40;99.90;;;;;;5071652;28;20028;-46
2023/11/07 06:40:13;;;;;;;4.95;2.00;;;9.40;99.90;;;;;;5071444;28;20021;-48
2023/11/07 06:42:39;;;;;;;8.90;1.52;;;9.40;99.90;;;;;;5071445;28;20056;-48
2023/11/07 06:45:05;;;;;;;3.05;1.48;;;9.50;99.90;;;;;;5071511;28;20028;-49
2023/11/07 06:47:31;;;;;;;2.30;1.52;;;9.50;99.90;;;;;;5071388;28;20033;-45
2023/11/07 06:49:56;;;;;;;3.92;1.52;;;9.50;99.90;;;;;;5071513;28;20457;-49
2023/11/07 06:52:22;;;;;;;1.75;1.40;;;9.50;99.90;;;;;;5071600;28;20115;-47
2023/11/07 06:54:47;;;;;;;4.28;1.83;;;9.50;99.90;;;;;;5072058;28;20020;-46
2023/11/07 06:57:13;;;;;;;3.08;1.60;;;9.60;99.90;;;;;;5071284;28;20046;-47
2023/11/07 06:59:39;;;;;;;4.10;1.48;;;9.60;99.90;;;;;;5071422;28;20058;-47
2023/11/07 07:02:05;;;;;;;2.63;1.25;;;9.60;99.90;;;;;;5071464;28;20020;-51
2023/11/07 07:04:30;;;;;;;8.88;1.52;;;9.50;99.90;;;;;;5071413;28;20046;-46
2023/11/07 07:06:56;;;;;;;4.78;1.40;;;9.60;99.90;;;;;;5072933;28;20116;-48
2023/11/07 07:09:21;;;;;;;2.65;1.50;;;9.60;99.90;;;;;;5075177;28;20036;-51
2023/11/07 07:11:47;;;;;;;3.95;1.52;;;9.60;99.90;;;;;;5075202;28;20036;-47
2023/11/07 07:14:13;;;;;;;2.00;1.40;;;9.60;99.90;;;;;;5075385;28;20094;-51
2023/11/07 07:16:40;;;;;;;3.22;1.40;;;9.60;99.90;;;;;;5074968;28;20496;-45
2023/11/07 07:19:06;;;;;;;3.17;1.80;;;9.70;99.90;;;;;;5075361;28;20029;-48
2023/11/07 07:21:34;;;;;;;5.72;1.40;;;9.70;99.90;;;;;;5057025;28;20021;-52
2023/11/07 07:24:08;;;;;;;6.38;2.60;;;9.70;99.90;;;;;;5075073;28;20427;-45
2023/11/07 07:26:34;;;;;;;6.28;1.35;;;9.70;99.90;;;;;;5075018;28;20021;-47
2023/11/07 07:28:59;;;;;;;4.97;1.67;;;9.80;99.90;;;;;;5075180;28;20047;-47
2023/11/07 07:31:27;;;;;;;2.35;1.27;;;9.80;99.90;;;;;;5074873;28;20119;-46
2023/11/07 07:33:53;;;;;;;2.50;1.25;;;9.80;99.90;;;;;;5074939;28;20391;-47
2023/11/07 07:36:22;;;;;;;5.90;1.73;;;9.80;99.90;;;;;;5074715;28;20043;-47
2023/11/07 07:38:48;;;;;;;2.60;1.52;;;9.80;99.90;;;;;;5074508;28;20056;-48
2023/11/07 07:41:14;;;;;;;2.13;1.40;;;9.80;99.90;;;;;;5056571;28;20456;-47
2023/11/07 07:43:39;;;;;;;1.75;1.40;;;9.90;99.90;;;;;;5074840;28;20484;-46
2023/11/07 07:46:07;;;;;;;4.53;1.88;;;10.00;99.90;;;;;;5074543;28;20017;-47
2023/11/07 07:48:32;;;;;;;3.03;1.42;;;10.00;99.90;;;;;;5074616;28;20016;-49
2023/11/07 07:50:58;;;;;;;3.75;1.42;;;10.00;99.90;;;;;;5074277;28;20115;-50
2023/11/07 07:53:24;;;;;;;1.52;1.40;;;10.00;99.90;;;;;;5074459;28;20480;-47
2023/11/07 07:55:50;;;;;;;4.75;1.55;;;10.00;99.90;;;;;;5074486;28;20029;-46
2023/11/07 07:58:19;;;;;;;7.15;1.52;;;10.00;99.90;;;;;;5074402;28;20031;-47
2023/11/07 08:00:52;;;;;;;3.17;1.27;;;9.90;99.90;;;;;;5074288;28;20373;-46
2023/11/07 08:03:18;;;;;;;3.45;2.00;;;9.90;99.90;;;;;;5073933;28;20100;-45
2023/11/07 08:05:44;;;;;;;3.75;1.27;;;9.90;99.90;;;;;;5074006;28;20146;-47
2023/11/07 08:08:16;;;;;;;3.08;1.20;;;10.00;99.90;;;;;;5056514;28;20040;-47
2023/11/07 08:10:47;;;;;;;1.95;1.38;;;10.00;99.90;;;;;;5074110;28;20403;-49
2023/11/07 08:13:14;;;;;;;2.45;1.10;;;10.00;99.90;;;;;;5074214;28;20027;-51
2023/11/07 08:15:39;;;;;;;3.33;1.35;;;10.10;99.90;;;;;;5073723;28;20078;-47
2023/11/07 08:18:06;;;;;;;3.33;1.77;;;10.10;99.90;;;;;;5073268;28;20024;-53
2023/11/07 08:20:33;;;;;;;3.30;1.25;;;10.10;99.90;;;;;;5073930;28;20043;-48
2023/11/07 08:22:59;;;;;;;2.88;1.42;;;10.10;99.90;;;;;;5073773;28;20100;-47
2023/11/07 08:25:27;;;;;;;4.45;1.08;;;10.10;99.90;;;;;;5073913;28;20025;-50
2023/11/07 08:27:53;;;;;;;1.65;1.30;;;10.10;99.90;;;;;;5073481;28;20441;-49
2023/11/07 08:30:22;;;;;;;1.50;0.98;;;10.20;99.90;;;;;;5074342;28;20028;-47
2023/11/07 08:32:48;;;;;;;4.28;1.10;;;10.20;99.90;;;;;;5082035;28;20024;-46
2023/11/07 08:35:20;;;;;;;1.23;1.10;;;10.30;99.90;;;;;;5093685;28;20051;-45
2023/11/07 08:37:47;;;;;;;3.40;1.23;;;10.40;99.90;;;;;;5079304;28;20063;-48
2023/11/07 08:40:16;;;;;;;3.70;1.20;;;10.40;99.90;;;;;;5081539;28;20024;-44
2023/11/07 08:42:43;;;;;;;2.55;1.00;;;10.40;99.90;;;;;;5088394;28;20028;-46
2023/11/07 08:45:15;;;;;;;2.38;1.00;;;10.50;99.90;;;;;;5078041;28;20017;-43
2023/11/07 08:47:43;;;;;;;2.70;1.02;;;10.50;99.90;;;;;;5066466;28;20038;-46
2023/11/07 08:50:10;;;;;;;6.55;2.00;;;10.50;99.90;;;;;;5092960;28;20016;-50
2023/11/07 08:52:37;;;;;;;2.88;1.30;;;10.50;99.90;;;;;;5066790;28;20572;-51
2023/11/07 08:55:05;;;;;;;1.80;1.00;;;10.50;99.90;;;;;;5080404;28;20024;-45
2023/11/07 08:57:31;;;;;;;2.65;0.88;;;10.50;99.90;;;;;;5087154;28;20028;-50
2023/11/07 08:59:57;;;;;;;2.80;1.35;;;10.50;99.90;;;;;;5093319;28;20031;-45
2023/11/07 09:02:23;;;;;;;1.85;0.93;;;10.50;99.90;;;;;;5093330;28;20016;-46
2023/11/07 09:04:48;;;;;;;5.07;1.00;;;10.50;99.90;;;;;;5093225;28;20099;-47
2023/11/07 09:07:16;;;;;;;1.08;0.90;;;10.40;99.90;;;;;;5093113;28;20016;-44
2023/11/07 09:09:42;;;;;;;1.20;0.90;;;10.50;99.90;;;;;;5093084;28;20028;-46
2023/11/07 09:12:10;;;;;;;0.90;0.90;;;10.50;99.90;;;;;;5093095;28;20395;-45
2023/11/07 09:14:35;;;;;;;3.22;1.20;;;10.50;99.90;;;;;;5093262;28;20480;-45
2023/11/07 09:17:02;;;;;;;1.00;0.77;;;10.60;99.90;;;;;;5092765;28;20075;-48
2023/11/07 09:19:27;;;;;;;3.30;0.93;;;10.50;99.90;;;;;;5092806;28;20032;-50
2023/11/07 09:21:53;;;;;;;2.25;0.73;;;10.50;99.90;;;;;;5093096;28;20505;-46
2023/11/07 09:24:18;;;;;;;3.22;0.98;;;10.50;99.90;;;;;;5092752;28;20027;-45
2023/11/07 09:26:45;;;;;;;4.32;1.13;;;10.50;99.90;;;;;;5087666;28;20391;-48
2023/11/07 09:29:10;;;;;;;3.35;1.23;;;10.60;99.90;;;;;;5085520;28;20012;-44
2023/11/07 09:31:36;;;;;;;1.05;0.80;;;10.60;99.90;;;;;;5091640;28;20024;-52
2023/11/07 09:34:01;;;;;;;1.23;0.80;;;10.60;99.90;;;;;;5090531;28;20016;-53
2023/11/07 09:36:27;;;;;;;1.23;0.80;;;10.70;99.90;;;;;;5072179;28;20025;-54
2023/11/07 09:38:52;;;;;;;3.85;0.90;;;10.70;99.90;;;;;;5071998;28;20025;-55
2023/11/07 09:41:18;;;;;;;2.08;1.40;;;10.80;99.90;;;;;;5071921;28;20107;-51
2023/11/07 09:43:45;;;;;;;1.23;0.90;;;10.80;99.90;;;;;;5072599;28;20069;-48
2023/11/07 09:46:11;;;;;;;1.25;1.10;;;10.90;99.90;;;;;;5071670;28;20017;-51
2023/11/07 09:48:37;;;;;;;5.35;1.30;;;11.00;99.90;;;;;;5072155;28;20028;-46
2023/11/07 09:51:04;;;;;;;4.47;0.90;;;11.10;99.90;;;;;;5072052;28;20031;-51
2023/11/07 09:53:31;;;;;;;1.10;0.80;;;11.10;99.90;;;;;;5076033;28;20061;-48
2023/11/07 09:55:58;;;;;;;1.45;0.80;;;11.20;99.90;;;;;;5080762;28;20109;-50
2023/11/07 09:58:28;;;;;;;0.80;0.80;;;11.20;99.90;;;;;;5092444;28;20487;-51
2023/11/07 10:00:57;;;;;;;1.52;0.90;;;11.30;99.90;;;;;;5078414;28;20484;-49
2023/11/07 10:03:23;;;;;;;8.20;1.52;;;11.30;99.90;;;;;;5071940;28;20013;-49
2023/11/07 10:05:50;;;;;;;3.80;1.05;;;11.30;99.90;;;;;;5071731;28;20020;-49
2023/11/07 10:08:16;;;;;;;0.90;0.68;;;11.20;99.90;;;;;;5072061;28;20438;-48
2023/11/07 10:10:42;;;;;;;2.50;0.80;;;11.20;99.90;;;;;;5071618;28;20028;-48
2023/11/07 10:13:10;;;;;;;3.38;1.00;;;11.30;99.90;;;;;;5053393;28;20035;-46
2023/11/07 10:15:36;;;;;;;0.93;0.93;;;11.30;99.90;;;;;;5071285;28;20048;-47
2023/11/07 10:18:10;;;;;;;1.27;1.00;;;11.40;99.90;;;;;;5075434;28;20020;-46
2023/11/07 10:20:48;;;;;;;5.78;1.33;;;11.40;99.90;;;;;;5086270;28;20438;-50
2023/11/07 10:23:14;;;;;;;1.90;1.20;;;11.40;99.90;;;;;;5088980;28;20544;-46
2023/11/07 10:25:39;;;;;;;0.60;0.60;;;11.40;99.90;;;;;;5071708;28;20032;-47
2023/11/07 10:28:07;;;;;;;0.80;0.80;;;11.40;99.90;;;;;;5071533;28;20028;-46
2023/11/07 10:30:43;;;;;;;4.43;1.00;;;11.40;99.90;;;;;;5071204;28;20032;-48
2023/11/07 10:33:10;;;;;;;2.03;1.00;;;11.40;99.90;;;;;;5071345;28;20103;-49
2023/11/07 10:35:54;;;;;;;2.28;0.80;;;11.40;99.90;;;;;;5075431;28;20188;-48
2023/11/07 10:38:19;;;;;;;3.47;1.42;;;11.40;99.90;;;;;;5087840;28;20035;-47
2023/11/07 10:40:46;;;;;;;2.38;0.70;;;11.40;99.90;;;;;;5091009;28;20024;-48
2023/11/07 10:43:11;;;;;;;0.50;0.50;;;11.40;99.90;;;;;;5098185;28;20039;-48
2023/11/07 10:45:38;;;;;;;2.85;0.70;;;11.30;99.90;;;;;;5079823;28;20024;-49
2023/11/07 10:48:06;;;;;;;3.38;0.77;;;11.30;99.90;;;;;;5098180;28;20031;-48
2023/11/07 10:50:35;;;;;;;2.95;0.60;;;11.20;99.90;;;;;;5098126;28;20056;-51
2023/11/07 10:53:01;;;;;;;3.88;0.60;;;11.20;99.90;;;;;;5098293;28;20020;-49
2023/11/07 10:55:26;;;;;;;2.42;0.88;;;11.20;99.90;;;;;;5098355;28;20499;-47
2023/11/07 10:57:59;;;;;;;0.50;0.50;;;11.20;99.90;;;;;;5082294;28;20020;-49
2023/11/07 11:00:25;;;;;;;4.10;0.65;;;11.20;99.90;;;;;;5077718;28;20012;-49
2023/11/07 11:02:54;;;;;;;0.65;0.40;;;11.20;99.90;;;;;;5076704;28;20031;-51
2023/11/07 11:05:23;;;;;;;13.25;8.48;;;11.20;99.90;;;;;;5077647;28;20404;-51
2023/11/07 11:07:54;;;;;;;25.92;14.52;;;11.20;99.90;;;;;;5077793;28;20031;-50
2023/11/07 11:10:27;;;;;;;0.70;0.70;;;11.30;99.90;;;;;;5078045;28;20028;-48
2023/11/07 11:12:54;;;;;;;0.40;0.40;;;11.20;99.90;;;;;;5077794;28;20078;-51
2023/11/07 11:15:20;;;;;;;0.63;0.50;;;11.30;99.90;;;;;;5092272;28;20438;-48
2023/11/07 11:17:57;;;;;;;3.70;0.60;;;11.30;99.90;;;;;;5077030;28;20032;-47
2023/11/07 11:20:45;;;;;;;0.50;0.50;;;11.30;99.90;;;;;;5077345;28;20384;-49
2023/11/07 11:23:44;;;;;;;0.80;0.80;;;11.30;99.90;;;;;;5092411;28;20028;-46
2023/11/07 11:26:44;;;;;;;0.77;0.55;;;11.40;99.90;;;;;;5056181;28;20021;-49
2023/11/07 11:29:26;;;;;;;1.33;0.40;;;11.30;99.90;;;;;;5055387;28;20057;-49
2023/11/07 11:31:53;;;;;;;1.27;0.75;;;11.40;99.90;;;;;;5057178;28;20489;-47
2023/11/07 11:34:29;;;;;;;0.55;0.50;;;11.30;99.90;;;;;;5062040;28;20024;-50
2023/11/07 11:36:58;;;;;;;0.85;0.70;;;11.40;99.90;;;;;;5058161;28;20107;-50
2023/11/07 11:39:26;;;;;;;0.47;0.47;;;11.50;99.90;;;;;;5076889;28;20067;-52
2023/11/07 11:42:09;;;;;;;0.40;0.40;;;11.50;99.90;;;;;;5077168;28;20016;-48
2023/11/07 11:44:35;;;;;;;0.70;0.70;;;11.60;99.90;;;;;;5077151;28;20073;-49
2023/11/07 11:47:02;;;;;;;0.50;0.50;;;11.60;99.90;;;;;;5076984;28;20025;-50
2023/11/07 11:49:27;;;;;;;0.40;0.40;;;11.60;99.90;;;;;;5080827;28;20032;-48
2023/11/07 11:51:57;;;;;;;0.63;0.60;;;11.60;99.90;;;;;;5080268;28;20491;-50
2023/11/07 11:54:23;;;;;;;3.00;0.95;;;11.60;99.90;;;;;;5089793;28;20016;-50
2023/11/07 11:56:51;;;;;;;0.40;0.40;;;11.60;99.90;;;;;;5092631;28;20085;-50
2023/11/07 11:59:24;;;;;;;0.40;0.40;;;11.60;99.90;;;;;;5064047;28;20063;-51
2023/11/07 12:02:04;;;;;;;0.50;0.50;;;11.70;99.90;;;;;;5076626;28;20021;-49
2023/11/07 12:04:48;;;;;;;0.60;0.60;;;11.80;99.90;;;;;;5076042;28;20051;-48
2023/11/07 12:07:14;;;;;;;0.47;0.47;;;11.90;99.90;;;;;;5086205;28;20051;-48
2023/11/07 12:09:40;;;;;;;42.63;26.88;;;12.00;99.90;;;;;;5086205;28;20059;-51
2023/11/07 12:12:07;;;;;;;15.13;7.05;;;12.10;99.90;;;;;;5091565;28;20107;-48
2023/11/07 12:14:46;;;;;;;6.18;2.47;;;12.10;99.90;;;;;;5073235;28;20024;-47
2023/11/07 12:17:12;;;;;;;0.82;0.60;;;12.20;99.90;;;;;;5073022;28;20036;-50
2023/11/07 12:19:38;;;;;;;0.55;0.50;;;12.20;99.90;;;;;;5073174;28;20016;-49
2023/11/07 12:22:04;;;;;;;0.50;0.50;;;12.20;99.90;;;;;;5060909;23;20421;-49
2023/11/07 12:24:30;;;;;;;1.88;0.60;;;12.20;99.90;;;;;;4995854;28;20097;-46
2023/11/07 12:26:55;;;;;;;0.40;0.40;;;12.90;99.90;;;;;;5002759;28;20033;-49
2023/11/07 12:29:31;;;;;;;0.50;0.50;;;12.10;99.90;;;;;;4992302;28;20030;-47
2023/11/07 12:31:57;;;;;;;0.40;0.40;;;12.10;99.90;;;;;;4991858;28;20026;-48
2023/11/07 12:34:34;;;;;;;0.28;0.28;;;12.10;99.90;;;;;;5008895;28;20101;-48
2023/11/07 12:37:22;;;;;;;2.70;0.50;;;12.20;99.90;;;;;;5002056;28;20018;-48
2023/11/07 12:39:48;;;;;;;3.35;0.65;;;12.30;99.90;;;;;;5033153;28;20012;-46
2023/11/07 12:42:14;;;;;;;0.40;0.40;;;12.40;99.90;;;;;;5025468;28;20497;-48
2023/11/07 12:44:41;;;;;;;0.77;0.50;;;12.20;99.90;;;;;;4992130;28;20066;-47
2023/11/07 12:47:08;;;;;;;0.98;0.43;;;12.40;99.90;;;;;;4991476;28;20057;-49
2023/11/07 12:49:38;;;;;;;1.00;0.80;;;12.40;99.90;;;;;;5023772;28;20509;-47
2023/11/07 12:52:11;;;;;;;1.88;0.47;;;12.40;99.90;;;;;;5058403;28;20036;-46
2023/11/07 12:54:38;;;;;;;1.10;0.40;;;12.40;99.90;;;;;;5001330;28;20034;-47